createdAt,value
2023-01-23T00:01:39.268Z,15.25
2023-01-23T00:04:07.739Z,15.21
2023-01-23T00:06:35.824Z,15.19
2023-01-23T00:09:05.529Z,15.16
2023-01-23T00:11:34.121Z,15.14
2023-01-23T00:14:04.488Z,15.11
2023-01-23T00:16:34.774Z,15.06
2023-01-23T00:19:02.913Z,15.03
2023-01-23T00:21:31.808Z,15.00
2023-01-23T00:24:02.176Z,14.99
2023-01-23T00:26:34.065Z,14.94
2023-01-23T00:29:05.684Z,14.93
2023-01-23T00:31:37.260Z,14.88
2023-01-23T00:34:13.833Z,14.87
2023-01-23T00:36:43.531Z,14.86
2023-01-23T00:39:17.438Z,14.81
2023-01-23T00:41:47.883Z,14.78
2023-01-23T00:44:16.922Z,14.75
2023-01-23T00:46:46.165Z,14.74
2023-01-23T00:49:14.866Z,14.70
2023-01-23T00:51:42.957Z,14.69
2023-01-23T00:54:12.124Z,14.66
2023-01-23T00:56:40.186Z,14.64
2023-01-23T00:59:10.103Z,14.62
2023-01-23T01:01:38.204Z,14.56
2023-01-23T01:04:06.942Z,14.57
2023-01-23T01:06:35.042Z,14.54
2023-01-23T01:09:03.537Z,14.50
2023-01-23T01:11:31.818Z,14.50
2023-01-23T01:14:01.387Z,14.47
2023-01-23T01:16:30.960Z,14.46
2023-01-23T01:18:59.147Z,14.44
2023-01-23T01:21:27.968Z,14.41
2023-01-23T01:23:56.095Z,14.39
2023-01-23T01:26:29.283Z,14.38
2023-01-23T01:29:00.790Z,14.34
2023-01-23T01:31:30.440Z,14.32
2023-01-23T01:33:58.541Z,14.29
2023-01-23T01:36:27.091Z,14.28
2023-01-23T01:38:55.224Z,14.22
2023-01-23T01:41:23.715Z,14.23
2023-01-23T01:43:53.404Z,14.22
2023-01-23T01:46:23.536Z,14.20
2023-01-23T01:49:02.849Z,14.17
2023-01-23T01:51:34.758Z,14.16
2023-01-23T01:54:10.455Z,14.15
2023-01-23T01:56:44.663Z,14.12
2023-01-23T01:59:14.294Z,14.09
2023-01-23T02:01:46.957Z,14.06
2023-01-23T02:04:16.775Z,14.03
2023-01-23T02:06:45.257Z,13.99
2023-01-23T02:09:19.903Z,13.96
2023-01-23T02:11:48.316Z,13.93
2023-01-23T02:14:16.498Z,13.92
2023-01-23T02:16:51.019Z,13.89
2023-01-23T02:19:37.665Z,13.87
2023-01-23T02:22:15.154Z,13.86
2023-01-23T02:24:50.627Z,13.84
2023-01-23T02:27:20.096Z,13.83
2023-01-23T02:29:51.753Z,13.81
2023-01-23T02:32:24.358Z,13.80
2023-01-23T02:34:55.194Z,13.77
2023-01-23T02:37:27.997Z,13.74
2023-01-23T02:39:56.500Z,13.75
2023-01-23T02:42:26.938Z,13.73
2023-01-23T02:44:56.011Z,13.70
2023-01-23T02:47:24.512Z,13.69
2023-01-23T02:49:52.657Z,13.67
2023-01-23T02:52:20.836Z,13.64
2023-01-23T02:54:51.683Z,13.64
2023-01-23T02:57:22.762Z,13.61
2023-01-23T03:00:09.728Z,13.59
2023-01-23T03:02:38.447Z,13.57
2023-01-23T03:05:07.525Z,13.55
2023-01-23T03:07:35.802Z,13.53
2023-01-23T03:10:04.976Z,13.52
2023-01-23T03:12:38.111Z,13.51
2023-01-23T03:15:09.148Z,13.50
2023-01-23T03:17:37.537Z,13.47
2023-01-23T03:20:07.426Z,13.45
2023-01-23T03:22:36.999Z,13.39
2023-01-23T03:25:08.284Z,13.43
2023-01-23T03:27:37.405Z,13.43
2023-01-23T03:30:13.561Z,13.42
2023-01-23T03:32:41.974Z,13.40
2023-01-23T03:35:14.019Z,13.38
2023-01-23T03:37:42.210Z,13.39
2023-01-23T03:40:34.051Z,13.35
2023-01-23T03:43:02.237Z,13.36
2023-01-23T03:45:32.319Z,13.34
2023-01-23T03:48:01.795Z,13.33
2023-01-23T03:50:32.784Z,13.33
2023-01-23T03:53:02.416Z,13.32
2023-01-23T03:55:30.482Z,13.28
2023-01-23T03:57:58.585Z,13.28
2023-01-23T04:00:26.839Z,13.27
2023-01-23T04:02:56.666Z,13.23
2023-01-23T04:05:24.927Z,13.24
2023-01-23T04:07:55.455Z,13.23
2023-01-23T04:10:24.568Z,13.22
2023-01-23T04:12:53.077Z,13.20
2023-01-23T04:15:21.315Z,13.18
2023-01-23T04:17:49.498Z,13.17
2023-01-23T04:20:19.650Z,13.15
2023-01-23T04:22:47.855Z,13.13
2023-01-23T04:25:16.101Z,13.13
2023-01-23T04:27:44.488Z,13.11
2023-01-23T04:30:15.355Z,13.12
2023-01-23T04:32:45.215Z,13.10
2023-01-23T04:35:13.319Z,13.10
2023-01-23T04:37:45.228Z,13.10
2023-01-23T04:40:14.878Z,13.08
2023-01-23T04:42:43.114Z,13.12
2023-01-23T04:45:12.409Z,13.22
2023-01-23T04:47:43.719Z,13.32
2023-01-23T04:50:12.271Z,13.40
2023-01-23T04:52:47.951Z,13.51
2023-01-23T04:55:16.174Z,13.60
2023-01-23T04:57:44.354Z,13.69
2023-01-23T05:00:14.240Z,13.81
2023-01-23T05:02:46.897Z,13.93
2023-01-23T05:05:17.234Z,14.04
2023-01-23T05:07:46.875Z,14.15
2023-01-23T05:10:16.781Z,14.24
2023-01-23T05:12:45.260Z,14.33
2023-01-23T05:15:13.725Z,14.43
2023-01-23T05:17:42.241Z,14.51
2023-01-23T05:20:12.174Z,14.60
2023-01-23T05:22:52.131Z,14.72
2023-01-23T05:25:26.600Z,14.83
2023-01-23T05:27:55.048Z,14.93
2023-01-23T05:30:24.432Z,15.04
2023-01-23T05:32:52.938Z,15.14
2023-01-23T05:35:25.851Z,15.21
2023-01-23T05:37:54.382Z,15.26
2023-01-23T05:40:25.066Z,15.32
2023-01-23T05:42:53.222Z,15.34
2023-01-23T05:45:21.302Z,15.39
2023-01-23T05:47:49.607Z,15.40
2023-01-23T05:50:22.592Z,15.42
2023-01-23T05:52:51.461Z,15.46
2023-01-23T05:55:19.725Z,15.44
2023-01-23T05:57:49.198Z,15.44
2023-01-23T06:00:20.802Z,15.42
2023-01-23T06:02:49.205Z,15.40
2023-01-23T06:05:17.724Z,15.37
2023-01-23T06:07:45.887Z,15.36
2023-01-23T06:10:14.164Z,15.33
2023-01-23T06:12:42.349Z,15.29
2023-01-23T06:15:12.758Z,15.28
2023-01-23T06:17:41.097Z,15.24
2023-01-23T06:20:11.606Z,15.20
2023-01-23T06:22:40.161Z,15.19
2023-01-23T06:25:09.239Z,15.15
2023-01-23T06:27:37.419Z,15.12
2023-01-23T06:30:06.935Z,15.08
2023-01-23T06:32:45.679Z,15.05
2023-01-23T06:35:13.842Z,15.00
2023-01-23T06:37:42.125Z,14.98
2023-01-23T06:40:13.217Z,14.95
2023-01-23T06:42:42.248Z,14.91
2023-01-23T06:45:14.968Z,14.87
2023-01-23T06:47:44.539Z,14.82
2023-01-23T06:50:12.887Z,14.79
2023-01-23T06:52:41.532Z,14.76
2023-01-23T06:55:13.185Z,14.72
2023-01-23T06:57:42.939Z,14.67
2023-01-23T07:00:12.432Z,14.66
2023-01-23T07:02:40.928Z,14.62
2023-01-23T07:05:10.898Z,14.54
2023-01-23T07:07:39.402Z,14.54
2023-01-23T07:10:08.792Z,14.51
2023-01-23T07:12:37.914Z,14.47
2023-01-23T07:15:07.403Z,14.46
2023-01-23T07:17:35.531Z,14.43
2023-01-23T07:20:05.494Z,14.41
2023-01-23T07:22:35.248Z,14.39
2023-01-23T07:25:03.694Z,14.36
2023-01-23T07:27:33.152Z,14.33
2023-01-23T07:30:01.317Z,14.32
2023-01-23T07:32:29.399Z,14.30
2023-01-23T07:34:57.662Z,14.27
2023-01-23T07:37:26.160Z,14.27
2023-01-23T07:39:55.827Z,14.27
2023-01-23T07:42:24.077Z,14.28
2023-01-23T07:44:52.219Z,14.32
2023-01-23T07:47:20.685Z,14.39
2023-01-23T07:49:49.324Z,14.46
2023-01-23T07:52:17.412Z,14.55
2023-01-23T07:54:45.552Z,14.66
2023-01-23T07:57:15.044Z,14.75
2023-01-23T07:59:43.202Z,14.83
2023-01-23T08:02:11.938Z,14.95
2023-01-23T08:04:40.258Z,15.03
2023-01-23T08:07:08.466Z,15.09
2023-01-23T08:09:36.621Z,15.14
2023-01-23T08:12:05.331Z,15.17
2023-01-23T08:14:34.768Z,15.18
2023-01-23T08:17:02.832Z,15.20
2023-01-23T08:19:31.251Z,15.21
2023-01-23T08:21:59.812Z,15.20
2023-01-23T08:24:27.966Z,15.21
2023-01-23T08:26:56.128Z,15.20
2023-01-23T08:29:24.267Z,15.20
2023-01-23T08:31:55.104Z,15.19
2023-01-23T08:34:24.249Z,15.16
2023-01-23T08:36:54.729Z,15.17
2023-01-23T08:39:25.637Z,15.16
2023-01-23T08:41:53.804Z,15.14
2023-01-23T08:44:21.921Z,15.13
2023-01-23T08:46:55.010Z,15.12
2023-01-23T08:49:24.932Z,15.09
2023-01-23T08:51:53.336Z,15.07
2023-01-23T08:54:21.649Z,15.07
2023-01-23T08:56:49.789Z,15.04
2023-01-23T08:59:18.042Z,15.01
2023-01-23T09:01:50.417Z,15.00
2023-01-23T09:04:18.821Z,14.98
2023-01-23T09:06:48.302Z,14.97
2023-01-23T09:09:16.447Z,14.94
2023-01-23T09:11:46.598Z,14.95
2023-01-23T09:14:15.767Z,14.94
2023-01-23T09:16:43.916Z,14.91
2023-01-23T09:19:12.739Z,14.85
2023-01-23T09:21:41.053Z,14.87
2023-01-23T09:24:10.830Z,14.87
2023-01-23T09:26:38.980Z,14.86
2023-01-23T09:29:07.620Z,14.84
2023-01-23T09:31:36.651Z,14.83
2023-01-23T09:34:05.200Z,14.82
2023-01-23T09:36:42.460Z,14.81
2023-01-23T09:39:13.318Z,14.81
2023-01-23T09:41:42.290Z,14.78
2023-01-23T09:44:17.082Z,14.78
2023-01-23T09:46:49.234Z,14.76
2023-01-23T09:49:24.401Z,14.77
2023-01-23T09:51:57.945Z,14.76
2023-01-23T09:54:38.304Z,14.77
2023-01-23T09:57:15.102Z,14.78
2023-01-23T09:59:59.303Z,14.80
2023-01-23T10:02:29.609Z,14.81
2023-01-23T10:04:59.403Z,14.84
2023-01-23T10:07:51.141Z,14.91
2023-01-23T10:10:39.696Z,15.00
2023-01-23T10:13:14.226Z,15.09
2023-01-23T10:16:06.822Z,15.18
2023-01-23T10:18:41.846Z,15.28
2023-01-23T10:21:20.685Z,15.29
2023-01-23T10:23:58.620Z,15.31
2023-01-23T10:26:34.173Z,15.30
2023-01-23T10:29:11.505Z,15.33
2023-01-23T10:31:44.562Z,15.39
2023-01-23T10:34:15.463Z,15.46
2023-01-23T10:36:54.954Z,15.51
2023-01-23T10:39:28.821Z,15.57
2023-01-23T10:42:02.285Z,15.63
2023-01-23T10:44:31.260Z,15.68
2023-01-23T10:47:04.474Z,15.71
2023-01-23T10:49:33.385Z,15.72
2023-01-23T10:52:01.821Z,15.73
2023-01-23T10:54:32.951Z,15.76
2023-01-23T10:57:04.897Z,15.74
2023-01-23T10:59:38.823Z,15.73
2023-01-23T11:02:22.283Z,15.68
2023-01-23T11:04:52.889Z,15.64
2023-01-23T11:07:24.125Z,15.64
2023-01-23T11:09:56.094Z,15.66
2023-01-23T11:12:27.781Z,15.67
2023-01-23T11:15:18.027Z,15.73
2023-01-23T11:17:46.559Z,15.77
2023-01-23T11:20:25.798Z,15.82
2023-01-23T11:23:06.527Z,15.85
2023-01-23T11:25:38.222Z,15.86
2023-01-23T11:28:23.436Z,15.89
2023-01-23T11:31:11.519Z,15.96
2023-01-23T11:33:47.805Z,15.98
2023-01-23T11:36:42.428Z,15.99
2023-01-23T11:39:22.824Z,16.08
2023-01-23T11:41:51.148Z,16.09
2023-01-23T11:44:24.434Z,16.10
2023-01-23T11:47:17.128Z,16.14
2023-01-23T11:50:01.483Z,16.18
2023-01-23T11:52:45.502Z,16.20
2023-01-23T11:55:34.696Z,16.18
2023-01-23T11:58:14.680Z,16.16
2023-01-23T12:00:47.950Z,16.18
2023-01-23T12:03:39.892Z,16.15
2023-01-23T12:06:25.102Z,16.17
2023-01-23T12:09:03.356Z,16.22
2023-01-23T12:11:38.264Z,16.23
2023-01-23T12:14:17.183Z,16.25
2023-01-23T12:16:59.882Z,16.27
2023-01-23T12:19:55.915Z,16.29
2023-01-23T12:22:33.378Z,16.32
2023-01-23T12:25:15.889Z,16.35
2023-01-23T12:27:48.505Z,16.36
2023-01-23T12:30:48.909Z,16.38
2023-01-23T12:33:30.116Z,16.41
2023-01-23T12:36:15.018Z,16.45
2023-01-23T12:38:54.744Z,16.47
2023-01-23T12:41:36.348Z,16.48
2023-01-23T12:44:12.575Z,16.45
2023-01-23T12:46:47.356Z,16.46
2023-01-23T12:49:27.067Z,16.50
2023-01-23T12:52:01.462Z,16.51
2023-01-23T12:54:40.701Z,16.51
2023-01-23T12:57:11.812Z,16.56
2023-01-23T12:59:56.225Z,16.59
2023-01-23T13:02:35.742Z,16.59
2023-01-23T13:05:20.963Z,16.62
2023-01-23T13:07:57.272Z,16.60
2023-01-23T13:11:03.227Z,16.66
2023-01-23T13:13:32.147Z,16.70
2023-01-23T13:16:11.128Z,16.75
2023-01-23T13:19:10.454Z,16.77
2023-01-23T13:21:58.441Z,16.82
2023-01-23T13:24:50.447Z,16.85
2023-01-23T13:27:47.609Z,16.86
2023-01-23T13:30:39.706Z,16.86
2023-01-23T13:33:55.291Z,16.88
2023-01-23T13:36:33.888Z,16.88
2023-01-23T13:39:22.729Z,16.88
2023-01-23T13:41:54.143Z,16.85
2023-01-23T13:44:40.346Z,16.91
2023-01-23T14:22:08.953Z,16.78
2023-01-23T14:24:45.184Z,16.78
2023-01-23T14:27:21.919Z,16.74
2023-01-23T14:30:02.389Z,16.74
2023-01-23T14:32:33.087Z,16.72
2023-01-23T14:35:01.573Z,16.70
2023-01-23T14:37:31.884Z,16.69
2023-01-23T14:40:09.870Z,16.68
2023-01-23T14:42:41.016Z,16.69
2023-01-23T14:45:13.814Z,16.67
2023-01-23T14:47:46.957Z,16.66
2023-01-23T14:50:20.796Z,16.64
2023-01-23T14:52:58.782Z,16.64
2023-01-23T14:55:31.103Z,16.64
2023-01-23T14:58:01.352Z,16.64
2023-01-23T15:00:32.262Z,16.63
2023-01-23T15:03:00.536Z,16.60
2023-01-23T15:05:30.438Z,16.59
2023-01-23T15:08:07.258Z,16.55
2023-01-23T15:10:45.403Z,16.52
2023-01-23T15:13:22.216Z,16.48
2023-01-23T15:15:56.606Z,16.47
2023-01-23T15:18:27.826Z,16.44
2023-01-23T15:20:57.845Z,16.38
2023-01-23T15:23:31.436Z,16.40
2023-01-23T15:26:22.635Z,16.37
2023-01-23T15:28:53.188Z,16.34
2023-01-23T15:31:27.525Z,16.33
2023-01-23T15:33:56.681Z,16.29
2023-01-23T15:36:28.296Z,16.23
2023-01-23T15:38:58.873Z,16.23
2023-01-23T15:41:46.188Z,16.17
2023-01-23T15:44:16.237Z,16.18
2023-01-23T15:46:45.892Z,16.14
2023-01-23T15:49:24.854Z,16.12
2023-01-23T15:51:53.515Z,16.10
2023-01-23T15:54:26.044Z,16.08
2023-01-23T15:57:06.603Z,16.05
2023-01-23T15:59:36.552Z,16.03
2023-01-23T16:02:12.843Z,16.01
2023-01-23T16:04:49.688Z,15.98
2023-01-23T16:07:25.091Z,15.93
2023-01-23T16:09:55.215Z,15.93
2023-01-23T16:12:28.489Z,15.90
2023-01-23T16:14:56.827Z,15.87
2023-01-23T16:17:26.402Z,15.86
2023-01-23T16:19:55.602Z,15.85
2023-01-23T16:22:29.153Z,15.83
2023-01-23T16:24:58.457Z,15.81
2023-01-23T16:27:27.690Z,15.77
2023-01-23T16:29:57.693Z,15.77
2023-01-23T16:32:27.517Z,15.75
2023-01-23T16:34:55.707Z,15.72
2023-01-23T16:37:25.047Z,15.69
2023-01-23T16:39:56.020Z,15.67
2023-01-23T16:42:25.141Z,15.67
2023-01-23T16:44:53.377Z,15.65
2023-01-23T16:47:21.501Z,15.63
2023-01-23T16:49:53.055Z,15.60
2023-01-23T16:52:24.737Z,15.58
2023-01-23T16:54:56.442Z,15.59
2023-01-23T16:57:25.352Z,15.54
2023-01-23T16:59:56.428Z,15.54
2023-01-23T17:02:32.681Z,15.53
2023-01-23T17:05:02.224Z,15.51
2023-01-23T17:07:30.379Z,15.50
2023-01-23T17:10:01.457Z,15.50
2023-01-23T17:12:32.768Z,15.53
2023-01-23T17:15:00.894Z,15.58
2023-01-23T17:17:32.860Z,15.68
2023-01-23T17:20:05.565Z,15.75
2023-01-23T17:22:38.266Z,15.87
2023-01-23T17:25:14.276Z,15.99
2023-01-23T17:27:45.769Z,16.13
2023-01-23T17:30:16.844Z,16.25
2023-01-23T17:32:48.167Z,16.39
2023-01-23T17:35:24.379Z,16.52
2023-01-23T17:38:00.703Z,16.60
2023-01-23T17:40:29.513Z,16.69
2023-01-23T17:42:58.263Z,16.77
2023-01-23T17:45:29.090Z,16.84
2023-01-23T17:47:57.565Z,16.92
2023-01-23T17:50:29.161Z,17.01
2023-01-23T17:52:58.366Z,17.06
2023-01-23T17:55:31.772Z,17.16
2023-01-23T17:58:01.468Z,17.25
2023-01-23T18:00:29.755Z,17.33
2023-01-23T18:02:59.551Z,17.43
2023-01-23T18:05:29.941Z,17.53
2023-01-23T18:07:58.275Z,17.59
2023-01-23T18:10:29.759Z,17.64
2023-01-23T18:13:09.716Z,17.67
2023-01-23T18:15:43.432Z,17.69
2023-01-23T18:18:22.515Z,17.72
2023-01-23T18:20:54.743Z,17.77
2023-01-23T18:23:24.157Z,17.79
2023-01-23T18:26:00.611Z,17.81
2023-01-23T18:28:36.015Z,17.81
2023-01-23T18:31:11.267Z,17.91
2023-01-23T18:33:59.555Z,17.97
2023-01-23T18:36:42.973Z,18.01
2023-01-23T18:39:36.292Z,18.05
2023-01-23T18:42:17.195Z,18.05
2023-01-23T18:44:51.905Z,18.14
2023-01-23T18:47:20.712Z,18.19
2023-01-23T18:49:49.455Z,18.19
2023-01-23T18:52:25.602Z,18.28
2023-01-23T18:55:03.175Z,18.37
2023-01-23T18:57:53.453Z,18.43
2023-01-23T19:00:27.651Z,18.50
2023-01-23T19:02:58.934Z,18.58
2023-01-23T19:05:32.696Z,18.62
2023-01-23T19:08:03.801Z,18.68
2023-01-23T19:10:47.961Z,18.70
2023-01-23T19:13:21.911Z,18.70
2023-01-23T19:15:59.990Z,18.72
2023-01-23T19:18:46.471Z,18.72
2023-01-23T19:21:18.582Z,18.74
2023-01-23T19:23:57.671Z,18.74
2023-01-23T19:26:29.714Z,18.74
2023-01-23T19:29:15.719Z,18.79
2023-01-23T19:32:06.016Z,18.84
2023-01-23T19:34:35.777Z,18.88
2023-01-23T19:37:04.256Z,18.91
2023-01-23T19:39:34.233Z,18.95
2023-01-23T19:42:03.068Z,18.98
2023-01-23T19:44:31.370Z,19.01
2023-01-23T19:47:00.036Z,19.05
2023-01-23T19:49:28.646Z,19.09
2023-01-23T19:51:58.129Z,19.16
2023-01-23T19:54:26.827Z,19.20
2023-01-23T19:56:57.483Z,19.25
2023-01-23T19:59:26.501Z,19.31
2023-01-23T20:01:55.535Z,19.35
2023-01-23T20:04:25.729Z,19.40
2023-01-23T20:06:57.368Z,19.44
2023-01-23T20:09:28.907Z,19.47
2023-01-23T20:11:59.024Z,19.49
2023-01-23T20:14:27.386Z,19.47
2023-01-23T20:16:55.794Z,19.49
2023-01-23T20:19:27.556Z,19.49
2023-01-23T20:21:55.965Z,19.48
2023-01-23T20:24:24.453Z,19.48
2023-01-23T20:26:56.043Z,19.49
2023-01-23T20:29:26.042Z,19.47
2023-01-23T20:31:55.020Z,19.49
2023-01-23T20:34:23.471Z,19.53
2023-01-23T20:36:51.902Z,19.57
2023-01-23T20:39:20.438Z,19.60
2023-01-23T20:41:51.311Z,19.62
2023-01-23T20:44:19.725Z,19.64
2023-01-23T20:46:49.492Z,19.66
2023-01-23T20:49:17.936Z,19.69
2023-01-23T20:51:46.440Z,19.74
2023-01-23T20:54:14.867Z,19.77
2023-01-23T20:56:43.921Z,19.81
2023-01-23T20:59:21.542Z,19.86
2023-01-23T21:02:08.727Z,19.88
2023-01-23T21:04:38.415Z,19.90
2023-01-23T21:07:06.888Z,19.89
2023-01-23T21:09:38.185Z,19.88
2023-01-23T21:12:07.535Z,19.86
2023-01-23T21:14:35.861Z,19.83
2023-01-23T21:17:06.389Z,19.78
2023-01-23T21:19:36.060Z,19.73
2023-01-23T21:22:06.043Z,19.70
2023-01-23T21:24:36.746Z,19.64
2023-01-23T21:27:06.137Z,19.59
2023-01-23T21:29:38.096Z,19.55
2023-01-23T21:32:07.907Z,19.48
2023-01-23T21:34:36.459Z,19.42
2023-01-23T21:37:07.266Z,19.34
2023-01-23T21:39:35.553Z,19.31
2023-01-23T21:42:03.942Z,19.26
2023-01-23T21:44:44.115Z,19.17
2023-01-23T21:47:13.568Z,19.12
2023-01-23T21:49:41.900Z,19.06
2023-01-23T21:52:11.340Z,18.98
2023-01-23T21:54:41.806Z,18.94
2023-01-23T21:57:10.184Z,18.86
2023-01-23T21:59:38.576Z,18.79
2023-01-23T22:02:06.212Z,18.74
2023-01-23T22:04:35.768Z,18.68
2023-01-23T22:07:03.978Z,18.63
2023-01-23T22:09:32.573Z,18.57
2023-01-23T22:12:01.180Z,18.51
2023-01-23T22:14:35.481Z,18.45
2023-01-23T22:17:03.672Z,18.41
2023-01-23T22:19:31.795Z,18.35
2023-01-23T22:22:01.603Z,18.29
2023-01-23T22:24:30.674Z,18.24
2023-01-23T22:27:03.961Z,18.16
2023-01-23T22:29:32.196Z,18.12
2023-01-23T22:32:00.462Z,18.07
2023-01-23T22:34:28.775Z,18.01
2023-01-23T22:36:56.822Z,17.96
2023-01-23T22:39:27.319Z,17.91
2023-01-23T22:41:55.517Z,17.86
2023-01-23T22:44:23.624Z,17.82
2023-01-23T22:46:52.141Z,17.77
2023-01-23T22:49:20.585Z,17.72
2023-01-23T22:51:48.890Z,17.65
2023-01-23T22:54:16.920Z,17.61
2023-01-23T22:56:46.449Z,17.54
2023-01-23T22:59:14.874Z,17.52
2023-01-23T23:01:43.043Z,17.46
2023-01-23T23:04:11.269Z,17.42
2023-01-23T23:06:39.414Z,17.39
2023-01-23T23:09:07.489Z,17.35
2023-01-23T23:11:36.954Z,17.30
2023-01-23T23:14:11.070Z,17.26
2023-01-23T23:16:39.206Z,17.22
2023-01-23T23:19:07.299Z,17.16
2023-01-23T23:21:37.238Z,17.12
2023-01-23T23:24:08.030Z,17.07
2023-01-23T23:26:36.505Z,17.06
2023-01-23T23:29:05.738Z,17.02
2023-01-23T23:31:35.471Z,16.99
2023-01-23T23:34:03.985Z,16.95
2023-01-23T23:36:32.258Z,16.92
2023-01-23T23:39:00.620Z,16.88
2023-01-23T23:41:29.391Z,16.83
2023-01-23T23:43:57.594Z,16.79
2023-01-23T23:46:26.354Z,16.74
2023-01-23T23:48:56.112Z,16.72
2023-01-23T23:51:26.543Z,16.68
2023-01-23T23:53:55.655Z,16.65
2023-01-23T23:56:26.624Z,16.63
2023-01-23T23:58:56.164Z,16.58
